Garden City, Washington
Current Conditions -  °F | °C
As of 6:19 AM on Saturday 20 Dec 2014 (Local Time) from KSHN Reporting Station
Light Rain Light Rain  
Wind Chill: 45°   Ceiling: 2000
Heat Index: 45°   Visibility: 2.5mi
Dew Point: 43°   Wind: 3mph
Humidity: 93%   Direction: 80°E
Pressure: 29.61"   Gusts: NA
Location:  47.0427°N, 123.269°W
Report Text: KSHN 201419Z AUTO 08003KT 2 1/2SM -RA BR FEW009 BKN020 OVC026 07/06 A2961 RMK AO2 P0004 T00720061
Loading
Personal Weather Stations






























Interactive Weather Map New forecast layout! Learn more

10-Day Weather Forecast

Advertisements
Track Severe Weather on mobile